sensor_id;sensor_type;location;lat;lon;timestamp;temperature;humidity
22471;DHT22;11402;51.374;6.594;2023-08-08T00:02:05;15.00;99.90
22471;DHT22;11402;51.374;6.594;2023-08-08T00:04:31;15.10;99.90
22471;DHT22;11402;51.374;6.594;2023-08-08T00:06:57;15.00;99.90
22471;DHT22;11402;51.374;6.594;2023-08-08T00:09:22;14.90;99.90
22471;DHT22;11402;51.374;6.594;2023-08-08T00:11:48;14.90;99.90
22471;DHT22;11402;51.374;6.594;2023-08-08T00:14:14;14.90;99.90
22471;DHT22;11402;51.374;6.594;2023-08-08T00:16:39;14.90;99.90
22471;DHT22;11402;51.374;6.594;2023-08-08T00:19:05;14.90;99.90
22471;DHT22;11402;51.374;6.594;2023-08-08T00:21:31;15.00;99.90
22471;DHT22;11402;51.374;6.594;2023-08-08T00:23:56;14.90;99.90
22471;DHT22;11402;51.374;6.594;2023-08-08T00:26:22;15.00;99.90
22471;DHT22;11402;51.374;6.594;2023-08-08T00:28:48;14.90;99.90
22471;DHT22;11402;51.374;6.594;2023-08-08T00:31:13;14.80;99.90
22471;DHT22;11402;51.374;6.594;2023-08-08T00:33:42;14.90;99.90
22471;DHT22;11402;51.374;6.594;2023-08-08T00:36:07;14.90;99.90
22471;DHT22;11402;51.374;6.594;2023-08-08T00:38:33;14.90;99.90
22471;DHT22;11402;51.374;6.594;2023-08-08T00:40:59;14.90;99.90
22471;DHT22;11402;51.374;6.594;2023-08-08T00:43:24;14.80;99.90
22471;DHT22;11402;51.374;6.594;2023-08-08T00:45:50;14.80;99.90
22471;DHT22;11402;51.374;6.594;2023-08-08T00:48:16;14.60;99.90
22471;DHT22;11402;51.374;6.594;2023-08-08T00:50:43;14.60;99.90
22471;DHT22;11402;51.374;6.594;2023-08-08T00:53:12;14.60;99.90
22471;DHT22;11402;51.374;6.594;2023-08-08T00:55:38;14.70;99.90
22471;DHT22;11402;51.374;6.594;2023-08-08T00:58:04;14.70;99.90
22471;DHT22;11402;51.374;6.594;2023-08-08T01:00:29;14.70;99.90
22471;DHT22;11402;51.374;6.594;2023-08-08T01:02:55;14.70;99.90
22471;DHT22;11402;51.374;6.594;2023-08-08T01:05:21;14.70;99.90
22471;DHT22;11402;51.374;6.594;2023-08-08T01:07:57;14.60;99.90
22471;DHT22;11402;51.374;6.594;2023-08-08T01:10:28;14.70;99.90
22471;DHT22;11402;51.374;6.594;2023-08-08T01:13:04;14.60;99.90
22471;DHT22;11402;51.374;6.594;2023-08-08T01:15:32;14.80;99.90
22471;DHT22;11402;51.374;6.594;2023-08-08T01:18:03;14.60;99.90
22471;DHT22;11402;51.374;6.594;2023-08-08T01:20:30;14.60;99.90
22471;DHT22;11402;51.374;6.594;2023-08-08T01:25:46;14.70;99.90
22471;DHT22;11402;51.374;6.594;2023-08-08T01:28:13;14.70;99.90
22471;DHT22;11402;51.374;6.594;2023-08-08T01:30:39;14.60;99.90
22471;DHT22;11402;51.374;6.594;2023-08-08T01:33:05;14.70;99.90
22471;DHT22;11402;51.374;6.594;2023-08-08T01:35:37;14.70;99.90
22471;DHT22;11402;51.374;6.594;2023-08-08T01:38:17;14.60;99.90
22471;DHT22;11402;51.374;6.594;2023-08-08T01:40:45;14.70;99.90
22471;DHT22;11402;51.374;6.594;2023-08-08T01:43:12;14.80;99.90
22471;DHT22;11402;51.374;6.594;2023-08-08T01:45:39;14.80;99.90
22471;DHT22;11402;51.374;6.594;2023-08-08T01:48:09;14.80;99.90
22471;DHT22;11402;51.374;6.594;2023-08-08T01:50:35;14.80;99.90
22471;DHT22;11402;51.374;6.594;2023-08-08T01:53:01;14.80;99.90
22471;DHT22;11402;51.374;6.594;2023-08-08T01:55:27;14.90;99.90
22471;DHT22;11402;51.374;6.594;2023-08-08T01:57:52;14.80;99.90
22471;DHT22;11402;51.374;6.594;2023-08-08T02:00:18;14.90;99.90
22471;DHT22;11402;51.374;6.594;2023-08-08T02:02:44;14.80;99.90
22471;DHT22;11402;51.374;6.594;2023-08-08T02:05:09;14.90;99.90
22471;DHT22;11402;51.374;6.594;2023-08-08T02:07:35;14.90;99.90
22471;DHT22;11402;51.374;6.594;2023-08-08T02:10:01;14.80;99.90
22471;DHT22;11402;51.374;6.594;2023-08-08T02:12:26;14.80;99.90
22471;DHT22;11402;51.374;6.594;2023-08-08T02:14:54;14.80;99.90
22471;DHT22;11402;51.374;6.594;2023-08-08T02:17:21;14.80;99.90
22471;DHT22;11402;51.374;6.594;2023-08-08T02:19:46;14.90;99.90
22471;DHT22;11402;51.374;6.594;2023-08-08T02:22:12;14.90;99.90
22471;DHT22;11402;51.374;6.594;2023-08-08T02:24:37;14.90;99.90
22471;DHT22;11402;51.374;6.594;2023-08-08T02:27:03;14.90;99.90
22471;DHT22;11402;51.374;6.594;2023-08-08T02:29:29;14.90;99.90
22471;DHT22;11402;51.374;6.594;2023-08-08T02:31:55;14.90;99.90
22471;DHT22;11402;51.374;6.594;2023-08-08T02:34:21;14.90;99.90
22471;DHT22;11402;51.374;6.594;2023-08-08T02:36:46;14.70;99.90
22471;DHT22;11402;51.374;6.594;2023-08-08T02:39:12;14.80;99.90
22471;DHT22;11402;51.374;6.594;2023-08-08T02:41:37;14.80;99.90
22471;DHT22;11402;51.374;6.594;2023-08-08T02:44:03;14.80;99.90
22471;DHT22;11402;51.374;6.594;2023-08-08T02:46:29;14.80;99.90
22471;DHT22;11402;51.374;6.594;2023-08-08T02:48:54;14.80;99.90
22471;DHT22;11402;51.374;6.594;2023-08-08T02:51:20;14.80;99.90
22471;DHT22;11402;51.374;6.594;2023-08-08T02:53:45;14.70;99.90
22471;DHT22;11402;51.374;6.594;2023-08-08T02:56:11;14.80;99.90
22471;DHT22;11402;51.374;6.594;2023-08-08T02:58:37;14.80;99.90
22471;DHT22;11402;51.374;6.594;2023-08-08T03:01:02;14.80;99.90
22471;DHT22;11402;51.374;6.594;2023-08-08T03:03:28;14.80;99.90
22471;DHT22;11402;51.374;6.594;2023-08-08T03:05:53;14.80;99.90
22471;DHT22;11402;51.374;6.594;2023-08-08T03:08:19;14.80;99.90
22471;DHT22;11402;51.374;6.594;2023-08-08T03:10:45;14.80;99.90
22471;DHT22;11402;51.374;6.594;2023-08-08T03:13:10;14.80;99.90
22471;DHT22;11402;51.374;6.594;2023-08-08T03:15:36;14.80;99.90
22471;DHT22;11402;51.374;6.594;2023-08-08T03:18:02;14.70;99.90
22471;DHT22;11402;51.374;6.594;2023-08-08T03:20:28;14.80;99.90
22471;DHT22;11402;51.374;6.594;2023-08-08T03:22:54;14.80;99.90
22471;DHT22;11402;51.374;6.594;2023-08-08T03:25:20;14.70;99.90
22471;DHT22;11402;51.374;6.594;2023-08-08T03:27:45;14.70;99.90
22471;DHT22;11402;51.374;6.594;2023-08-08T03:30:11;14.70;99.90
22471;DHT22;11402;51.374;6.594;2023-08-08T03:32:37;14.80;99.90
22471;DHT22;11402;51.374;6.594;2023-08-08T03:35:03;14.80;99.90
22471;DHT22;11402;51.374;6.594;2023-08-08T03:37:29;14.80;99.90
22471;DHT22;11402;51.374;6.594;2023-08-08T03:39:55;14.80;99.90
22471;DHT22;11402;51.374;6.594;2023-08-08T03:42:21;14.80;99.90
22471;DHT22;11402;51.374;6.594;2023-08-08T03:44:46;14.80;99.90
22471;DHT22;11402;51.374;6.594;2023-08-08T03:47:12;14.70;99.90
22471;DHT22;11402;51.374;6.594;2023-08-08T03:49:37;14.70;99.90
22471;DHT22;11402;51.374;6.594;2023-08-08T03:52:03;14.70;99.90
22471;DHT22;11402;51.374;6.594;2023-08-08T03:54:29;14.60;99.90
22471;DHT22;11402;51.374;6.594;2023-08-08T03:56:55;14.50;99.90
22471;DHT22;11402;51.374;6.594;2023-08-08T03:59:20;14.50;99.90
22471;DHT22;11402;51.374;6.594;2023-08-08T04:01:46;14.50;99.90
22471;DHT22;11402;51.374;6.594;2023-08-08T04:04:11;14.50;99.90
22471;DHT22;11402;51.374;6.594;2023-08-08T04:06:37;14.60;99.90
22471;DHT22;11402;51.374;6.594;2023-08-08T04:09:02;14.50;99.90
22471;DHT22;11402;51.374;6.594;2023-08-08T04:11:28;14.50;99.90
22471;DHT22;11402;51.374;6.594;2023-08-08T04:13:54;14.60;99.90
22471;DHT22;11402;51.374;6.594;2023-08-08T04:16:19;14.60;99.90
22471;DHT22;11402;51.374;6.594;2023-08-08T04:18:45;14.60;99.90
22471;DHT22;11402;51.374;6.594;2023-08-08T04:21:10;14.60;99.90
22471;DHT22;11402;51.374;6.594;2023-08-08T04:23:36;14.60;99.90
22471;DHT22;11402;51.374;6.594;2023-08-08T04:26:02;14.60;99.90
22471;DHT22;11402;51.374;6.594;2023-08-08T04:28:27;14.70;99.90
22471;DHT22;11402;51.374;6.594;2023-08-08T04:30:53;14.70;99.90
22471;DHT22;11402;51.374;6.594;2023-08-08T04:33:19;14.60;99.90
22471;DHT22;11402;51.374;6.594;2023-08-08T04:35:44;14.60;99.90
22471;DHT22;11402;51.374;6.594;2023-08-08T04:38:10;14.60;99.90
22471;DHT22;11402;51.374;6.594;2023-08-08T04:40:36;14.60;99.90
22471;DHT22;11402;51.374;6.594;2023-08-08T04:43:01;14.70;99.90
22471;DHT22;11402;51.374;6.594;2023-08-08T04:45:27;14.70;99.90
22471;DHT22;11402;51.374;6.594;2023-08-08T04:47:54;14.70;99.90
22471;DHT22;11402;51.374;6.594;2023-08-08T04:50:20;14.60;99.90
22471;DHT22;11402;51.374;6.594;2023-08-08T04:52:45;14.60;99.90
22471;DHT22;11402;51.374;6.594;2023-08-08T04:55:11;14.60;99.90
22471;DHT22;11402;51.374;6.594;2023-08-08T04:57:37;14.70;99.90
22471;DHT22;11402;51.374;6.594;2023-08-08T05:00:02;14.70;99.90
22471;DHT22;11402;51.374;6.594;2023-08-08T05:02:31;14.70;99.90
22471;DHT22;11402;51.374;6.594;2023-08-08T05:04:56;14.80;99.90
22471;DHT22;11402;51.374;6.594;2023-08-08T05:07:22;14.70;99.90
22471;DHT22;11402;51.374;6.594;2023-08-08T05:09:47;14.80;99.90
22471;DHT22;11402;51.374;6.594;2023-08-08T05:12:13;14.80;99.90
22471;DHT22;11402;51.374;6.594;2023-08-08T05:14:38;14.90;99.90
22471;DHT22;11402;51.374;6.594;2023-08-08T05:17:04;14.90;99.90
22471;DHT22;11402;51.374;6.594;2023-08-08T05:19:30;14.90;99.90
22471;DHT22;11402;51.374;6.594;2023-08-08T05:21:55;15.00;99.90
22471;DHT22;11402;51.374;6.594;2023-08-08T05:24:21;15.00;99.90
22471;DHT22;11402;51.374;6.594;2023-08-08T05:26:47;15.00;99.90
22471;DHT22;11402;51.374;6.594;2023-08-08T05:29:12;14.90;99.90
22471;DHT22;11402;51.374;6.594;2023-08-08T05:31:38;15.00;99.90
22471;DHT22;11402;51.374;6.594;2023-08-08T05:34:03;15.00;99.90
22471;DHT22;11402;51.374;6.594;2023-08-08T05:36:29;15.00;99.90
22471;DHT22;11402;51.374;6.594;2023-08-08T05:38:54;14.90;99.90
22471;DHT22;11402;51.374;6.594;2023-08-08T05:41:20;15.00;99.90
22471;DHT22;11402;51.374;6.594;2023-08-08T05:43:45;15.00;99.90
22471;DHT22;11402;51.374;6.594;2023-08-08T05:46:11;15.00;99.90
22471;DHT22;11402;51.374;6.594;2023-08-08T05:48:36;15.10;99.90
22471;DHT22;11402;51.374;6.594;2023-08-08T05:51:02;15.00;99.90
22471;DHT22;11402;51.374;6.594;2023-08-08T05:53:30;15.10;99.90
22471;DHT22;11402;51.374;6.594;2023-08-08T05:55:56;15.10;99.90
22471;DHT22;11402;51.374;6.594;2023-08-08T05:58:22;15.10;99.90
22471;DHT22;11402;51.374;6.594;2023-08-08T06:00:47;15.10;99.90
22471;DHT22;11402;51.374;6.594;2023-08-08T06:03:13;15.10;99.90
22471;DHT22;11402;51.374;6.594;2023-08-08T06:05:39;15.20;99.90
22471;DHT22;11402;51.374;6.594;2023-08-08T06:08:05;15.30;99.90
22471;DHT22;11402;51.374;6.594;2023-08-08T06:10:33;15.20;99.90
22471;DHT22;11402;51.374;6.594;2023-08-08T06:13:00;15.30;99.90
22471;DHT22;11402;51.374;6.594;2023-08-08T06:15:25;15.40;99.90
22471;DHT22;11402;51.374;6.594;2023-08-08T06:17:51;15.40;99.90
22471;DHT22;11402;51.374;6.594;2023-08-08T06:20:16;15.40;99.90
22471;DHT22;11402;51.374;6.594;2023-08-08T06:22:42;15.50;99.90
22471;DHT22;11402;51.374;6.594;2023-08-08T06:25:08;15.50;99.90
22471;DHT22;11402;51.374;6.594;2023-08-08T06:27:33;15.60;99.90
22471;DHT22;11402;51.374;6.594;2023-08-08T06:29:59;15.60;99.90
22471;DHT22;11402;51.374;6.594;2023-08-08T06:32:24;15.60;99.90
22471;DHT22;11402;51.374;6.594;2023-08-08T06:34:50;15.60;99.90
22471;DHT22;11402;51.374;6.594;2023-08-08T06:37:16;15.70;99.90
22471;DHT22;11402;51.374;6.594;2023-08-08T06:39:41;15.70;99.90
22471;DHT22;11402;51.374;6.594;2023-08-08T06:42:07;15.70;99.90
22471;DHT22;11402;51.374;6.594;2023-08-08T06:44:33;15.80;99.90
22471;DHT22;11402;51.374;6.594;2023-08-08T06:47:06;15.90;99.90
22471;DHT22;11402;51.374;6.594;2023-08-08T06:49:31;15.90;99.90
22471;DHT22;11402;51.374;6.594;2023-08-08T06:51:57;16.00;99.90
22471;DHT22;11402;51.374;6.594;2023-08-08T06:54:22;16.00;99.90
22471;DHT22;11402;51.374;6.594;2023-08-08T06:56:48;16.00;99.90
22471;DHT22;11402;51.374;6.594;2023-08-08T06:59:13;16.00;99.90
22471;DHT22;11402;51.374;6.594;2023-08-08T07:01:39;16.00;99.90
22471;DHT22;11402;51.374;6.594;2023-08-08T07:04:05;16.10;99.90
22471;DHT22;11402;51.374;6.594;2023-08-08T07:06:31;16.20;99.90
22471;DHT22;11402;51.374;6.594;2023-08-08T07:08:57;16.30;99.90
22471;DHT22;11402;51.374;6.594;2023-08-08T07:11:22;16.50;99.90
22471;DHT22;11402;51.374;6.594;2023-08-08T07:13:50;16.60;99.90
22471;DHT22;11402;51.374;6.594;2023-08-08T07:16:15;16.70;99.90
22471;DHT22;11402;51.374;6.594;2023-08-08T07:18:41;16.70;99.90
22471;DHT22;11402;51.374;6.594;2023-08-08T07:21:06;16.60;99.90
22471;DHT22;11402;51.374;6.594;2023-08-08T07:23:32;16.60;99.90
22471;DHT22;11402;51.374;6.594;2023-08-08T07:25:57;16.60;99.90
22471;DHT22;11402;51.374;6.594;2023-08-08T07:28:23;16.50;99.90
22471;DHT22;11402;51.374;6.594;2023-08-08T07:30:49;16.60;99.90
22471;DHT22;11402;51.374;6.594;2023-08-08T07:33:14;16.70;99.90
22471;DHT22;11402;51.374;6.594;2023-08-08T07:35:40;16.80;99.90
22471;DHT22;11402;51.374;6.594;2023-08-08T07:38:05;16.90;99.90
22471;DHT22;11402;51.374;6.594;2023-08-08T07:40:31;17.00;99.90
22471;DHT22;11402;51.374;6.594;2023-08-08T07:42:57;17.00;99.90
22471;DHT22;11402;51.374;6.594;2023-08-08T07:45:22;17.00;99.90
22471;DHT22;11402;51.374;6.594;2023-08-08T07:47:48;17.10;99.90
22471;DHT22;11402;51.374;6.594;2023-08-08T07:50:13;17.00;99.90
22471;DHT22;11402;51.374;6.594;2023-08-08T07:52:40;17.10;99.90
22471;DHT22;11402;51.374;6.594;2023-08-08T07:55:05;17.30;99.90
22471;DHT22;11402;51.374;6.594;2023-08-08T07:57:32;17.30;99.90
22471;DHT22;11402;51.374;6.594;2023-08-08T08:00:04;17.30;99.90
22471;DHT22;11402;51.374;6.594;2023-08-08T08:02:36;17.40;99.90
22471;DHT22;11402;51.374;6.594;2023-08-08T08:05:03;17.50;99.90
22471;DHT22;11402;51.374;6.594;2023-08-08T08:07:32;17.50;99.90
22471;DHT22;11402;51.374;6.594;2023-08-08T08:09:57;17.60;99.90
22471;DHT22;11402;51.374;6.594;2023-08-08T08:12:23;17.60;99.90
22471;DHT22;11402;51.374;6.594;2023-08-08T08:14:48;17.70;99.90
22471;DHT22;11402;51.374;6.594;2023-08-08T08:17:14;17.70;99.90
22471;DHT22;11402;51.374;6.594;2023-08-08T08:19:40;17.80;99.90
22471;DHT22;11402;51.374;6.594;2023-08-08T08:22:05;17.80;99.90
22471;DHT22;11402;51.374;6.594;2023-08-08T08:24:31;17.90;99.90
22471;DHT22;11402;51.374;6.594;2023-08-08T08:26:57;17.90;99.90
22471;DHT22;11402;51.374;6.594;2023-08-08T08:29:22;17.80;99.90
22471;DHT22;11402;51.374;6.594;2023-08-08T08:31:48;17.90;99.90
22471;DHT22;11402;51.374;6.594;2023-08-08T08:34:13;17.90;99.90
22471;DHT22;11402;51.374;6.594;2023-08-08T08:36:39;18.00;99.90
22471;DHT22;11402;51.374;6.594;2023-08-08T08:39:13;18.10;99.90
22471;DHT22;11402;51.374;6.594;2023-08-08T08:41:39;18.20;99.90
22471;DHT22;11402;51.374;6.594;2023-08-08T08:44:05;18.30;99.90
22471;DHT22;11402;51.374;6.594;2023-08-08T08:46:31;18.40;99.90
22471;DHT22;11402;51.374;6.594;2023-08-08T08:48:58;18.40;99.90
22471;DHT22;11402;51.374;6.594;2023-08-08T08:51:25;18.50;99.90
22471;DHT22;11402;51.374;6.594;2023-08-08T08:53:51;18.60;99.90
22471;DHT22;11402;51.374;6.594;2023-08-08T08:56:17;18.50;99.90
22471;DHT22;11402;51.374;6.594;2023-08-08T08:58:43;18.50;99.90
22471;DHT22;11402;51.374;6.594;2023-08-08T09:01:09;18.60;99.90
22471;DHT22;11402;51.374;6.594;2023-08-08T09:03:36;18.50;99.90
22471;DHT22;11402;51.374;6.594;2023-08-08T09:06:03;18.50;99.90
22471;DHT22;11402;51.374;6.594;2023-08-08T09:08:30;18.60;99.90
22471;DHT22;11402;51.374;6.594;2023-08-08T09:10:56;18.60;99.90
22471;DHT22;11402;51.374;6.594;2023-08-08T09:13:22;18.50;99.90
22471;DHT22;11402;51.374;6.594;2023-08-08T09:15:48;18.40;99.90
22471;DHT22;11402;51.374;6.594;2023-08-08T09:18:17;18.50;99.90
22471;DHT22;11402;51.374;6.594;2023-08-08T09:20:47;18.50;99.90
22471;DHT22;11402;51.374;6.594;2023-08-08T09:23:13;18.50;99.90
22471;DHT22;11402;51.374;6.594;2023-08-08T09:25:39;18.50;99.90
22471;DHT22;11402;51.374;6.594;2023-08-08T09:28:05;18.60;99.90
22471;DHT22;11402;51.374;6.594;2023-08-08T09:30:31;18.50;99.90
22471;DHT22;11402;51.374;6.594;2023-08-08T09:33:03;18.60;99.90
22471;DHT22;11402;51.374;6.594;2023-08-08T09:35:29;18.80;99.90
22471;DHT22;11402;51.374;6.594;2023-08-08T09:37:55;18.70;99.90
22471;DHT22;11402;51.374;6.594;2023-08-08T09:40:22;18.60;99.90
22471;DHT22;11402;51.374;6.594;2023-08-08T09:42:51;18.50;99.90
22471;DHT22;11402;51.374;6.594;2023-08-08T09:45:17;18.40;99.90
22471;DHT22;11402;51.374;6.594;2023-08-08T09:47:42;18.40;99.90
22471;DHT22;11402;51.374;6.594;2023-08-08T09:50:08;18.50;99.90
22471;DHT22;11402;51.374;6.594;2023-08-08T09:52:35;18.50;99.90
22471;DHT22;11402;51.374;6.594;2023-08-08T09:55:01;18.60;99.90
22471;DHT22;11402;51.374;6.594;2023-08-08T09:57:27;18.50;99.90
22471;DHT22;11402;51.374;6.594;2023-08-08T09:59:55;18.50;99.90
22471;DHT22;11402;51.374;6.594;2023-08-08T10:02:21;18.70;99.90
22471;DHT22;11402;51.374;6.594;2023-08-08T10:04:47;18.80;99.90
22471;DHT22;11402;51.374;6.594;2023-08-08T10:07:14;18.80;99.90
22471;DHT22;11402;51.374;6.594;2023-08-08T10:09:40;18.80;99.90
22471;DHT22;11402;51.374;6.594;2023-08-08T10:12:07;18.80;99.90
22471;DHT22;11402;51.374;6.594;2023-08-08T10:14:36;18.90;99.90
22471;DHT22;11402;51.374;6.594;2023-08-08T10:17:05;18.90;99.90
22471;DHT22;11402;51.374;6.594;2023-08-08T10:19:32;18.90;99.90
22471;DHT22;11402;51.374;6.594;2023-08-08T10:22:07;18.90;99.90
22471;DHT22;11402;51.374;6.594;2023-08-08T10:24:35;18.80;99.90
22471;DHT22;11402;51.374;6.594;2023-08-08T10:27:02;18.80;99.90
22471;DHT22;11402;51.374;6.594;2023-08-08T10:29:31;18.70;99.90
22471;DHT22;11402;51.374;6.594;2023-08-08T10:32:05;18.70;99.90
22471;DHT22;11402;51.374;6.594;2023-08-08T10:34:40;18.80;99.90
22471;DHT22;11402;51.374;6.594;2023-08-08T10:37:14;18.80;99.90
22471;DHT22;11402;51.374;6.594;2023-08-08T10:40:03;18.80;99.90
22471;DHT22;11402;51.374;6.594;2023-08-08T10:42:42;18.80;99.90
22471;DHT22;11402;51.374;6.594;2023-08-08T10:45:15;18.70;99.90
22471;DHT22;11402;51.374;6.594;2023-08-08T10:47:42;18.70;99.90
22471;DHT22;11402;51.374;6.594;2023-08-08T10:50:10;18.70;99.90
22471;DHT22;11402;51.374;6.594;2023-08-08T10:58:05;18.60;99.90
22471;DHT22;11402;51.374;6.594;2023-08-08T11:00:33;18.80;99.90
22471;DHT22;11402;51.374;6.594;2023-08-08T11:03:00;18.80;99.90
22471;DHT22;11402;51.374;6.594;2023-08-08T11:05:29;18.80;99.90
22471;DHT22;11402;51.374;6.594;2023-08-08T11:07:56;18.70;99.90
22471;DHT22;11402;51.374;6.594;2023-08-08T11:10:22;18.70;99.90
22471;DHT22;11402;51.374;6.594;2023-08-08T11:12:56;18.80;99.90
22471;DHT22;11402;51.374;6.594;2023-08-08T11:15:22;18.80;99.90
22471;DHT22;11402;51.374;6.594;2023-08-08T11:17:48;19.00;99.90
22471;DHT22;11402;51.374;6.594;2023-08-08T11:20:14;19.00;99.90
22471;DHT22;11402;51.374;6.594;2023-08-08T11:22:40;19.00;99.90
22471;DHT22;11402;51.374;6.594;2023-08-08T11:25:06;19.20;99.90
22471;DHT22;11402;51.374;6.594;2023-08-08T11:27:33;19.40;99.90
22471;DHT22;11402;51.374;6.594;2023-08-08T11:29:58;19.40;99.90
22471;DHT22;11402;51.374;6.594;2023-08-08T11:32:27;19.40;99.90
22471;DHT22;11402;51.374;6.594;2023-08-08T11:34:54;19.10;99.90
22471;DHT22;11402;51.374;6.594;2023-08-08T11:37:20;19.10;99.90
22471;DHT22;11402;51.374;6.594;2023-08-08T11:39:46;19.10;99.90
22471;DHT22;11402;51.374;6.594;2023-08-08T11:42:12;19.10;99.90
22471;DHT22;11402;51.374;6.594;2023-08-08T11:44:38;19.20;99.90
22471;DHT22;11402;51.374;6.594;2023-08-08T11:47:04;19.40;99.90
22471;DHT22;11402;51.374;6.594;2023-08-08T11:49:30;19.40;99.90
22471;DHT22;11402;51.374;6.594;2023-08-08T11:51:56;19.40;99.90
22471;DHT22;11402;51.374;6.594;2023-08-08T11:54:21;19.60;99.90
22471;DHT22;11402;51.374;6.594;2023-08-08T11:56:47;19.50;99.90
22471;DHT22;11402;51.374;6.594;2023-08-08T11:59:13;19.60;99.90
22471;DHT22;11402;51.374;6.594;2023-08-08T12:01:38;19.60;99.90
22471;DHT22;11402;51.374;6.594;2023-08-08T12:04:10;19.50;99.90
22471;DHT22;11402;51.374;6.594;2023-08-08T12:06:40;19.50;99.90
22471;DHT22;11402;51.374;6.594;2023-08-08T12:09:06;19.60;99.90
22471;DHT22;11402;51.374;6.594;2023-08-08T12:11:35;19.70;99.90
22471;DHT22;11402;51.374;6.594;2023-08-08T12:14:02;19.60;99.90
22471;DHT22;11402;51.374;6.594;2023-08-08T12:16:28;19.70;99.90
22471;DHT22;11402;51.374;6.594;2023-08-08T12:18:59;19.80;99.90
22471;DHT22;11402;51.374;6.594;2023-08-08T12:21:26;19.80;99.90
22471;DHT22;11402;51.374;6.594;2023-08-08T12:23:52;19.80;99.90
22471;DHT22;11402;51.374;6.594;2023-08-08T12:26:18;19.80;99.90
22471;DHT22;11402;51.374;6.594;2023-08-08T12:28:43;19.70;99.90
22471;DHT22;11402;51.374;6.594;2023-08-08T12:31:09;19.50;99.90
22471;DHT22;11402;51.374;6.594;2023-08-08T12:33:35;19.60;99.90
22471;DHT22;11402;51.374;6.594;2023-08-08T12:36:01;19.70;99.90
22471;DHT22;11402;51.374;6.594;2023-08-08T12:38:26;19.70;99.90
22471;DHT22;11402;51.374;6.594;2023-08-08T12:40:52;19.60;99.90
22471;DHT22;11402;51.374;6.594;2023-08-08T12:43:17;19.60;99.90
22471;DHT22;11402;51.374;6.594;2023-08-08T12:45:46;19.50;99.90
22471;DHT22;11402;51.374;6.594;2023-08-08T12:48:13;19.50;99.90
22471;DHT22;11402;51.374;6.594;2023-08-08T12:50:38;19.40;99.90
22471;DHT22;11402;51.374;6.594;2023-08-08T12:53:04;19.20;99.90
22471;DHT22;11402;51.374;6.594;2023-08-08T12:55:30;19.10;99.90
22471;DHT22;11402;51.374;6.594;2023-08-08T12:57:56;19.00;99.90
22471;DHT22;11402;51.374;6.594;2023-08-08T13:00:22;19.30;99.90
22471;DHT22;11402;51.374;6.594;2023-08-08T13:02:48;19.50;99.90
22471;DHT22;11402;51.374;6.594;2023-08-08T13:05:14;19.70;99.90
22471;DHT22;11402;51.374;6.594;2023-08-08T13:07:40;19.90;99.90
22471;DHT22;11402;51.374;6.594;2023-08-08T13:10:06;19.90;99.90
22471;DHT22;11402;51.374;6.594;2023-08-08T13:12:31;20.00;99.90
22471;DHT22;11402;51.374;6.594;2023-08-08T13:14:57;20.00;99.90
22471;DHT22;11402;51.374;6.594;2023-08-08T13:17:22;20.20;99.90
22471;DHT22;11402;51.374;6.594;2023-08-08T13:19:48;20.20;99.90
22471;DHT22;11402;51.374;6.594;2023-08-08T13:22:14;19.90;99.90
22471;DHT22;11402;51.374;6.594;2023-08-08T13:24:39;19.90;99.90
22471;DHT22;11402;51.374;6.594;2023-08-08T13:27:05;19.90;99.90
22471;DHT22;11402;51.374;6.594;2023-08-08T13:29:31;20.00;99.90
22471;DHT22;11402;51.374;6.594;2023-08-08T13:31:56;20.10;99.90
22471;DHT22;11402;51.374;6.594;2023-08-08T13:34:22;20.20;99.90
22471;DHT22;11402;51.374;6.594;2023-08-08T13:36:48;20.20;99.90
22471;DHT22;11402;51.374;6.594;2023-08-08T13:39:14;20.40;99.90
22471;DHT22;11402;51.374;6.594;2023-08-08T13:41:40;20.50;99.90
22471;DHT22;11402;51.374;6.594;2023-08-08T13:44:06;20.40;99.90
22471;DHT22;11402;51.374;6.594;2023-08-08T13:46:32;20.50;99.90
22471;DHT22;11402;51.374;6.594;2023-08-08T13:48:58;20.60;99.90
22471;DHT22;11402;51.374;6.594;2023-08-08T13:51:23;20.60;99.90
22471;DHT22;11402;51.374;6.594;2023-08-08T13:53:49;20.50;99.90
22471;DHT22;11402;51.374;6.594;2023-08-08T13:56:15;20.40;99.90
22471;DHT22;11402;51.374;6.594;2023-08-08T13:58:41;20.40;99.90
22471;DHT22;11402;51.374;6.594;2023-08-08T14:01:06;20.60;99.90
22471;DHT22;11402;51.374;6.594;2023-08-08T14:03:32;20.70;99.90
22471;DHT22;11402;51.374;6.594;2023-08-08T14:05:57;20.70;99.90
22471;DHT22;11402;51.374;6.594;2023-08-08T14:08:23;20.60;99.90
22471;DHT22;11402;51.374;6.594;2023-08-08T14:10:49;20.50;99.90
22471;DHT22;11402;51.374;6.594;2023-08-08T14:13:14;20.40;99.90
22471;DHT22;11402;51.374;6.594;2023-08-08T14:15:40;20.40;99.90
22471;DHT22;11402;51.374;6.594;2023-08-08T14:18:06;20.20;99.90
22471;DHT22;11402;51.374;6.594;2023-08-08T14:20:32;20.10;99.90
22471;DHT22;11402;51.374;6.594;2023-08-08T14:22:58;20.10;99.90
22471;DHT22;11402;51.374;6.594;2023-08-08T14:25:23;20.20;99.90
22471;DHT22;11402;51.374;6.594;2023-08-08T14:27:49;20.10;99.90
22471;DHT22;11402;51.374;6.594;2023-08-08T14:30:15;19.90;99.90
22471;DHT22;11402;51.374;6.594;2023-08-08T14:32:40;19.80;99.90
22471;DHT22;11402;51.374;6.594;2023-08-08T14:35:06;19.90;99.90
22471;DHT22;11402;51.374;6.594;2023-08-08T14:37:34;20.10;99.90
22471;DHT22;11402;51.374;6.594;2023-08-08T14:40:00;20.20;99.90
22471;DHT22;11402;51.374;6.594;2023-08-08T14:42:26;20.30;99.90
22471;DHT22;11402;51.374;6.594;2023-08-08T14:44:52;20.30;99.90
22471;DHT22;11402;51.374;6.594;2023-08-08T14:47:17;20.10;99.90
22471;DHT22;11402;51.374;6.594;2023-08-08T14:49:43;20.00;99.90
22471;DHT22;11402;51.374;6.594;2023-08-08T14:52:08;20.00;99.90
22471;DHT22;11402;51.374;6.594;2023-08-08T14:54:34;20.10;99.90
22471;DHT22;11402;51.374;6.594;2023-08-08T14:57:00;20.10;99.90
22471;DHT22;11402;51.374;6.594;2023-08-08T14:59:27;20.20;99.90
22471;DHT22;11402;51.374;6.594;2023-08-08T15:01:53;20.10;99.90
22471;DHT22;11402;51.374;6.594;2023-08-08T15:04:19;20.10;99.90
22471;DHT22;11402;51.374;6.594;2023-08-08T15:06:44;20.20;99.90
22471;DHT22;11402;51.374;6.594;2023-08-08T15:09:10;20.20;99.90
22471;DHT22;11402;51.374;6.594;2023-08-08T15:11:36;20.00;99.90
22471;DHT22;11402;51.374;6.594;2023-08-08T15:14:02;20.00;99.90
22471;DHT22;11402;51.374;6.594;2023-08-08T15:16:28;20.00;99.90
22471;DHT22;11402;51.374;6.594;2023-08-08T15:18:54;20.00;99.90
22471;DHT22;11402;51.374;6.594;2023-08-08T15:21:20;20.10;99.90
22471;DHT22;11402;51.374;6.594;2023-08-08T15:23:47;20.20;99.90
22471;DHT22;11402;51.374;6.594;2023-08-08T15:26:13;20.30;99.90
22471;DHT22;11402;51.374;6.594;2023-08-08T15:28:39;20.30;99.90
22471;DHT22;11402;51.374;6.594;2023-08-08T15:31:04;20.30;99.90
22471;DHT22;11402;51.374;6.594;2023-08-08T15:33:30;20.30;99.90